»·PEaware :: FDX224 KLAS-KLAX

FDX224 :: KLAS-KLAX

FLIGHT INFORMATION

Flight Status: Arrived
Operator:
Federal Express
More flights by this operator :: More flights under this callsign
Pilot: Riley M. (10391)
Aircraft: Unknown
(B77F)
More flights by this aircraft type
Origin: KLAS McCarran Intl
United States
Destination: KLAX Los Angeles Intl
United States
More flights between these airports :: More routes between these airports
Route: +BOACH6 HEC RIIVR3
File this flight plan on PilotEdge
Remarks:
Altitude:
(Current/Filed)
270ft
Speed:
(Current/Filed)
400kts
Departed: 21-Dec-16 05:15 PM
Arrived: 21-Dec-16 06:31 PM
Distance/Time
Traveled:
205nm/1:16
Distance/Time
To Go:
Arrived

Flight Plot

Page will automatically refresh every two minutes.


Map Options




Map Legend


Flown Route
Filed Route
Departure Airport
Arrival Airport
Navaid (VOR, NDB)
Fix

Horizontal Profiles

Position Reports

Time Latitude Longitude Heading Altitude Ground
Speed
21-Dec-16 16:47 36.082406 -115.125757 90 2158ft 0kts
21-Dec-16 16:48 36.082406 -115.125757 90 2158ft 0kts
21-Dec-16 16:49 36.082406 -115.125757 90 2158ft 0kts
21-Dec-16 16:50 36.082406 -115.125757 90 2158ft 0kts
21-Dec-16 16:51 36.082406 -115.125757 90 2158ft 0kts
21-Dec-16 16:52 36.082406 -115.125757 90 2158ft 0kts
21-Dec-16 16:53 36.082406 -115.125757 90 2158ft 0kts
21-Dec-16 16:54 36.082406 -115.125757 90 2158ft 0kts
21-Dec-16 16:55 36.082406 -115.125757 90 2158ft 0kts
21-Dec-16 16:56 36.082406 -115.125757 90 2158ft 0kts
21-Dec-16 16:57 36.082408 -115.126120 90 2158ft 0kts
21-Dec-16 16:58 36.082684 -115.126728 145 2158ft 0kts
21-Dec-16 16:59 36.082717 -115.126755 145 2158ft 0kts
21-Dec-16 17:00 36.082607 -115.126663 145 2158ft 10kts
21-Dec-16 17:01 36.081529 -115.126323 181 2158ft 10kts
21-Dec-16 17:02 36.078812 -115.126414 180 2158ft 12kts
21-Dec-16 17:03 36.078250 -115.123598 87 2158ft 13kts
21-Dec-16 17:04 36.077489 -115.121619 136 2158ft 0kts
21-Dec-16 17:05 36.076845 -115.121376 188 2158ft 9kts
21-Dec-16 17:06 36.076401 -115.123016 269 2158ft 40kts
21-Dec-16 17:07 36.076523 -115.159208 269 3354ft 212kts
21-Dec-16 17:08 36.075183 -115.226825 256 5670ft 269kts
21-Dec-16 17:09 36.033482 -115.270526 204 8831ft 281kts
21-Dec-16 17:10 35.969847 -115.300923 191 10468ft 305kts
21-Dec-16 17:11 35.912465 -115.308540 185 10929ft 306kts
21-Dec-16 17:12 35.848724 -115.314144 175 12361ft 320kts
21-Dec-16 17:13 35.789766 -115.307402 175 12530ft 353kts
21-Dec-16 17:14 35.709887 -115.299550 184 14468ft 360kts
21-Dec-16 17:15 35.669224 -115.315224 212 15801ft 353kts
21-Dec-16 17:16 35.627154 -115.364703 224 17461ft 348kts
21-Dec-16 17:17 35.589002 -115.415171 225 19302ft 350kts
21-Dec-16 17:18 35.550918 -115.466059 225 19504ft 357kts
21-Dec-16 17:19 35.519088 -115.508704 225 20244ft 364kts
21-Dec-16 17:20 35.470872 -115.573297 225 22841ft 354kts
21-Dec-16 17:21 35.422634 -115.637645 225 23455ft 358kts
21-Dec-16 17:22 35.383494 -115.689789 225 24345ft 377kts
21-Dec-16 17:23 35.340321 -115.747317 224 27170ft 351kts
21-Dec-16 17:24 35.291863 -115.811694 224 27333ft 339kts
21-Dec-16 17:25 35.241072 -115.878990 224 28028ft 361kts
21-Dec-16 17:26 35.175752 -115.965403 224 28197ft 394kts
21-Dec-16 17:27 35.115551 -116.044853 224 28199ft 392kts
21-Dec-16 17:28 35.066698 -116.109158 224 28221ft 392kts
21-Dec-16 17:29 35.005638 -116.190177 224 28226ft 393kts
21-Dec-16 17:30 34.962715 -116.246570 223 28226ft 393kts
21-Dec-16 17:31 34.911594 -116.313527 222 28220ft 395kts
21-Dec-16 17:32 34.866260 -116.372761 222 28207ft 397kts
21-Dec-16 17:33 34.819600 -116.433557 222 28198ft 397kts
21-Dec-16 17:34 34.770181 -116.487481 215 28201ft 393kts
21-Dec-16 17:35 34.722364 -116.533431 214 28060ft 320kts
21-Dec-16 17:36 34.672974 -116.579963 214 26767ft 341kts
21-Dec-16 17:37 34.636619 -116.614177 214 26085ft 351kts
21-Dec-16 17:38 34.595423 -116.652955 214 25455ft 348kts
21-Dec-16 17:39 34.564176 -116.682295 214 24988ft 351kts
21-Dec-16 17:40 34.525466 -116.718622 214 24413ft 355kts
21-Dec-16 17:41 34.479411 -116.761760 215 23734ft 359kts
21-Dec-16 17:42 34.419856 -116.817480 215 22906ft 364kts
21-Dec-16 17:43 34.378432 -116.856178 215 22333ft 367kts
21-Dec-16 17:44 34.339406 -116.892593 215 21733ft 370kts
21-Dec-16 17:45 34.303393 -116.926175 215 21176ft 374kts
21-Dec-16 17:46 34.266571 -116.960456 214 20611ft 378kts
21-Dec-16 17:47 34.210806 -117.012296 214 19671ft 374kts
21-Dec-16 17:48 34.173392 -117.047011 214 19040ft 374kts
21-Dec-16 17:49 34.131581 -117.085851 213 18533ft 335kts
21-Dec-16 17:50 34.100827 -117.123641 232 18679ft 369kts
21-Dec-16 17:51 34.082133 -117.167146 234 18581ft 372kts
21-Dec-16 17:52 34.062237 -117.211455 235 17887ft 369kts
21-Dec-16 17:53 34.044425 -117.287643 257 16620ft 379kts
21-Dec-16 17:54 34.039285 -117.340612 257 15778ft 375kts
21-Dec-16 17:55 34.034610 -117.390415 258 14964ft 367kts
21-Dec-16 17:56 34.031237 -117.426645 258 14260ft 345kts
21-Dec-16 17:57 34.028210 -117.458768 258 14050ft 335kts
21-Dec-16 17:58 34.024803 -117.495117 258 13416ft 308kts
21-Dec-16 17:59 34.020279 -117.541999 258 12547ft 306kts
21-Dec-16 18:00 34.016079 -117.585810 259 11691ft 307kts
21-Dec-16 18:01 34.011328 -117.635487 259 10725ft 306kts
21-Dec-16 18:02 34.007534 -117.675193 259 10038ft 285kts
21-Dec-16 18:03 34.001052 -117.741971 260 10010ft 300kts
21-Dec-16 18:04 33.997156 -117.781893 260 9676ft 298kts
21-Dec-16 18:05 33.992061 -117.833662 261 8881ft 293kts
21-Dec-16 18:06 33.988412 -117.871100 261 8303ft 291kts
21-Dec-16 18:07 33.982632 -117.929959 262 7385ft 287kts
21-Dec-16 18:08 33.976038 -117.996644 262 6335ft 283kts
21-Dec-16 18:09 33.973880 -118.018389 262 5989ft 281kts
21-Dec-16 18:10 33.970901 -118.048350 263 5418ft 262kts
21-Dec-16 18:11 33.967833 -118.079562 264 4877ft 263kts
21-Dec-16 18:12 33.964189 -118.116903 263 4200ft 262kts
21-Dec-16 18:13 33.961326 -118.146190 263 3704ft 218kts
21-Dec-16 18:14 33.958690 -118.172750 264 3286ft 195kts
21-Dec-16 18:15 33.956805 -118.192014 264 3237ft 227kts
21-Dec-16 18:16 33.954002 -118.219696 263 2780ft 197kts
21-Dec-16 18:17 33.950804 -118.251318 263 2292ft 168kts
21-Dec-16 18:18 33.948309 -118.275944 263 1851ft 145kts
21-Dec-16 18:19 33.946314 -118.295495 263 1581ft 151kts
21-Dec-16 18:20 33.944221 -118.316055 262 1259ft 153kts
21-Dec-16 18:21 33.941252 -118.345134 262 780ft 148kts
21-Dec-16 18:22 33.937577 -118.380994 263 211ft 139kts
21-Dec-16 18:23 33.935513 -118.400298 253 142ft 29kts
21-Dec-16 18:24 33.934222 -118.401422 83 142ft 15kts
21-Dec-16 18:25 33.934757 -118.396222 82 142ft 28kts
21-Dec-16 18:26 33.935355 -118.390441 83 142ft 23kts
21-Dec-16 18:27 33.934115 -118.389725 181 142ft 0kts

Navigation Log

Ident Type
Flight plan parsing failed, navigation log unavailable